Time;durP1;ratioP1;P1;durP2;ratioP2;P2;SDS_P1;SDS_P2;PMS_P1;PMS_P2;Temp;Humidity;BMP_temperature;BMP_pressure;BME280_temperature;BME280_humidity;BME280_pressure;Samples;Min_cycle;Max_cycle;Signal;HPM_P1;HPM_P2
2024/03/08 00:00:12;;;;;;;14.25;3.13;;;;;;;;;;5090516;28;20074;-33
2024/03/08 00:02:50;;;;;;;18.48;3.65;;;;;;;;;;5106505;28;20140;-34
2024/03/08 00:05:18;;;;;;;17.65;3.70;;;;;;;;;;5114880;28;20482;-32
2024/03/08 00:07:45;;;;;;;19.77;3.83;;;;;;;;;;5114397;28;20427;-30
2024/03/08 00:10:12;;;;;;;12.10;3.72;;;;;;;;;;5114446;28;20042;-31
2024/03/08 00:12:43;;;;;;;21.65;3.67;;;;;;;;;;5113872;28;20039;-31
2024/03/08 00:15:14;;;;;;;15.57;3.53;;;;;;;;;;5099488;28;20043;-30
2024/03/08 00:17:41;;;;;;;12.57;3.22;;;;;;;;;;5097969;28;20032;-30
2024/03/08 00:20:08;;;;;;;11.68;3.08;;;;;;;;;;5102776;28;20024;-32
2024/03/08 00:22:38;;;;;;;14.20;3.33;;;;;;;;;;5098394;28;20028;-32
2024/03/08 00:25:09;;;;;;;9.93;3.28;;;;;;;;;;5103912;28;20043;-33
2024/03/08 00:27:36;;;;;;;13.23;3.63;;;;;;;;;;5108608;28;20038;-30
2024/03/08 00:30:04;;;;;;;12.85;3.85;;;;;;;;;;5110441;28;20031;-30
2024/03/08 00:32:31;;;;;;;18.58;3.88;;;;;;;;;;5113767;28;20073;-30
2024/03/08 00:34:58;;;;;;;15.68;3.72;;;;;;;;;;5111264;28;20065;-32
2024/03/08 00:37:25;;;;;;;12.50;4.10;;;;;;;;;;5107410;28;20035;-33
2024/03/08 00:39:52;;;;;;;14.25;3.78;;;;;;;;;;5110273;28;20546;-30
2024/03/08 00:42:20;;;;;;;18.77;4.25;;;;;;;;;;5107606;28;20032;-30
2024/03/08 00:44:50;;;;;;;13.10;4.00;;;;;;;;;;5109337;28;20024;-31
2024/03/08 00:47:17;;;;;;;21.23;4.35;;;;;;;;;;5105197;28;20793;-32
2024/03/08 00:49:44;;;;;;;14.02;4.50;;;;;;;;;;5098552;28;20024;-33
2024/03/08 00:52:11;;;;;;;18.23;4.30;;;;;;;;;;5096074;28;20031;-31
2024/03/08 00:54:38;;;;;;;15.15;4.43;;;;;;;;;;5101462;28;20031;-31
2024/03/08 00:57:06;;;;;;;16.38;4.70;;;;;;;;;;5114202;28;20028;-32
2024/03/08 00:59:33;;;;;;;9.00;3.83;;;;;;;;;;5100817;28;20032;-32
2024/03/08 01:02:03;;;;;;;18.05;4.90;;;;;;;;;;5108113;28;20107;-31
2024/03/08 01:04:30;;;;;;;9.50;4.38;;;;;;;;;;5102691;28;20066;-32
2024/03/08 01:06:58;;;;;;;16.27;4.75;;;;;;;;;;5095289;28;20027;-33
2024/03/08 01:09:26;;;;;;;13.52;4.22;;;;;;;;;;5113468;28;20047;-31
2024/03/08 01:11:54;;;;;;;21.27;5.00;;;;;;;;;;5112450;28;20031;-32
2024/03/08 01:14:25;;;;;;;16.63;5.07;;;;;;;;;;5112785;28;20047;-31
2024/03/08 01:16:52;;;;;;;12.23;4.10;;;;;;;;;;5109367;28;20039;-30
2024/03/08 01:19:19;;;;;;;14.93;4.80;;;;;;;;;;5099297;28;20119;-30
2024/03/08 01:21:46;;;;;;;8.85;4.47;;;;;;;;;;5107201;28;20024;-30
2024/03/08 01:24:13;;;;;;;12.82;5.07;;;;;;;;;;5106535;28;20028;-30
2024/03/08 01:26:40;;;;;;;17.65;4.47;;;;;;;;;;5109461;28;20130;-30
2024/03/08 01:29:08;;;;;;;19.35;5.00;;;;;;;;;;5098370;28;20055;-33
2024/03/08 01:31:36;;;;;;;25.08;5.25;;;;;;;;;;5096671;28;20067;-30
2024/03/08 01:34:04;;;;;;;12.85;5.25;;;;;;;;;;5100062;28;20042;-33
2024/03/08 01:36:31;;;;;;;17.38;5.53;;;;;;;;;;5105337;28;20043;-35
2024/03/08 01:38:58;;;;;;;13.13;4.95;;;;;;;;;;5100541;28;20031;-33
2024/03/08 01:41:29;;;;;;;14.98;4.53;;;;;;;;;;5095635;28;20448;-33
2024/03/08 01:43:56;;;;;;;17.38;5.15;;;;;;;;;;5076330;28;20393;-30
2024/03/08 01:46:23;;;;;;;13.07;5.38;;;;;;;;;;5092866;28;20050;-32
2024/03/08 01:48:51;;;;;;;10.73;4.70;;;;;;;;;;5092543;28;20036;-32
2024/03/08 01:51:18;;;;;;;14.70;5.60;;;;;;;;;;5101938;28;20521;-32
2024/03/08 01:53:47;;;;;;;17.05;5.35;;;;;;;;;;5106792;28;20031;-32
2024/03/08 01:56:14;;;;;;;16.92;5.35;;;;;;;;;;5111551;28;20039;-30
2024/03/08 01:58:44;;;;;;;20.58;6.28;;;;;;;;;;5106189;28;20072;-34
2024/03/08 02:01:18;;;;;;;13.82;5.10;;;;;;;;;;5105919;28;20474;-33
2024/03/08 02:03:46;;;;;;;20.65;5.70;;;;;;;;;;5104287;28;20044;-31
2024/03/08 02:06:14;;;;;;;15.35;5.47;;;;;;;;;;5105840;28;20024;-34
2024/03/08 02:08:44;;;;;;;15.77;5.95;;;;;;;;;;5104812;28;20116;-33
2024/03/08 02:11:11;;;;;;;14.32;5.18;;;;;;;;;;5104637;28;20039;-34
2024/03/08 02:13:38;;;;;;;12.43;5.80;;;;;;;;;;5104488;28;20115;-31
2024/03/08 02:16:07;;;;;;;17.13;5.40;;;;;;;;;;5108402;28;20023;-31
2024/03/08 02:18:35;;;;;;;19.08;6.03;;;;;;;;;;5110635;28;20036;-32
2024/03/08 02:21:05;;;;;;;12.57;5.13;;;;;;;;;;5110660;28;20440;-30
2024/03/08 02:23:33;;;;;;;13.07;5.20;;;;;;;;;;5110330;28;20441;-31
2024/03/08 02:26:00;;;;;;;16.85;5.20;;;;;;;;;;5110283;28;20460;-37
2024/03/08 02:28:27;;;;;;;17.02;5.32;;;;;;;;;;5107878;28;20028;-30
2024/03/08 02:30:57;;;;;;;12.00;4.70;;;;;;;;;;5110422;28;20104;-30
2024/03/08 02:33:24;;;;;;;15.90;5.18;;;;;;;;;;5110039;28;20106;-32
2024/03/08 02:35:51;;;;;;;14.63;5.45;;;;;;;;;;5110996;28;20027;-33
2024/03/08 02:41:28;;;;;;;12.15;4.63;;;;;;;;;;5105235;28;20038;-30
2024/03/08 02:43:55;;;;;;;16.90;4.78;;;;;;;;;;5099735;28;20044;-32
2024/03/08 02:46:23;;;;;;;13.65;5.28;;;;;;;;;;5091856;28;20051;-34
2024/03/08 02:48:50;;;;;;;12.18;4.72;;;;;;;;;;5091694;28;20478;-32
2024/03/08 02:51:17;;;;;;;17.83;5.35;;;;;;;;;;5073345;28;20046;-35
2024/03/08 02:53:44;;;;;;;15.63;4.57;;;;;;;;;;5091591;28;20425;-33
2024/03/08 02:56:13;;;;;;;14.48;4.93;;;;;;;;;;5091702;28;20024;-33
2024/03/08 02:58:40;;;;;;;12.38;4.25;;;;;;;;;;5091601;28;20563;-31
2024/03/08 03:01:07;;;;;;;10.68;4.70;;;;;;;;;;5091675;28;20028;-31
2024/03/08 03:03:34;;;;;;;11.75;4.68;;;;;;;;;;5091609;28;20035;-31
2024/03/08 03:06:01;;;;;;;12.68;5.18;;;;;;;;;;5091503;28;20115;-32
2024/03/08 03:08:28;;;;;;;12.18;5.05;;;;;;;;;;5091272;28;20467;-30
2024/03/08 03:10:56;;;;;;;15.95;5.28;;;;;;;;;;5091457;28;20390;-30
2024/03/08 03:13:23;;;;;;;12.27;5.15;;;;;;;;;;5091481;28;20055;-31
2024/03/08 03:15:51;;;;;;;12.25;5.13;;;;;;;;;;5091591;28;20096;-32
2024/03/08 03:18:21;;;;;;;12.68;5.35;;;;;;;;;;5091342;28;20572;-30
2024/03/08 03:20:49;;;;;;;13.52;4.97;;;;;;;;;;5091288;28;20032;-30
2024/03/08 03:23:20;;;;;;;11.95;5.32;;;;;;;;;;5091431;28;20137;-30
2024/03/08 03:25:47;;;;;;;16.40;4.88;;;;;;;;;;5091173;28;20044;-31
2024/03/08 03:28:17;;;;;;;11.60;4.47;;;;;;;;;;5091331;28;20090;-30
2024/03/08 03:30:47;;;;;;;13.82;4.78;;;;;;;;;;5091446;28;20036;-32
2024/03/08 03:33:16;;;;;;;10.75;4.40;;;;;;;;;;5091111;28;20398;-31
2024/03/08 03:35:44;;;;;;;16.02;5.80;;;;;;;;;;5091424;28;20041;-30
2024/03/08 03:38:11;;;;;;;11.73;5.53;;;;;;;;;;5095401;28;20555;-30
2024/03/08 03:40:38;;;;;;;13.00;5.68;;;;;;;;;;5095432;28;20016;-32
2024/03/08 03:43:05;;;;;;;14.60;5.60;;;;;;;;;;5095307;28;20547;-31
2024/03/08 03:45:35;;;;;;;13.57;5.10;;;;;;;;;;5095137;28;20093;-30
2024/03/08 03:48:09;;;;;;;10.90;5.45;;;;;;;;;;5095163;28;20024;-30
2024/03/08 03:50:36;;;;;;;14.95;5.28;;;;;;;;;;5095344;28;20046;-30
2024/03/08 03:53:04;;;;;;;16.23;5.63;;;;;;;;;;5095083;28;20498;-30
2024/03/08 03:55:31;;;;;;;11.27;5.32;;;;;;;;;;5095057;28;20039;-30
2024/03/08 03:58:00;;;;;;;9.57;5.38;;;;;;;;;;5094792;28;20051;-30
2024/03/08 04:00:28;;;;;;;12.18;5.15;;;;;;;;;;5094778;28;20389;-31
2024/03/08 04:02:58;;;;;;;13.73;6.07;;;;;;;;;;5094839;28;20379;-30
2024/03/08 04:05:26;;;;;;;10.93;5.05;;;;;;;;;;5094546;28;20044;-35
2024/03/08 04:07:53;;;;;;;13.85;6.10;;;;;;;;;;5094548;28;20528;-34
2024/03/08 04:10:20;;;;;;;13.98;5.60;;;;;;;;;;5094720;28;20040;-34
2024/03/08 04:12:47;;;;;;;18.35;6.10;;;;;;;;;;5094660;28;20080;-35
2024/03/08 04:15:15;;;;;;;10.68;5.80;;;;;;;;;;5094676;28;20063;-32
2024/03/08 04:17:42;;;;;;;13.00;6.00;;;;;;;;;;5076444;28;20028;-32
2024/03/08 04:20:13;;;;;;;15.13;6.00;;;;;;;;;;5094468;28;20020;-31
2024/03/08 04:22:40;;;;;;;13.90;5.70;;;;;;;;;;5094263;28;20032;-32
2024/03/08 04:25:09;;;;;;;15.02;5.90;;;;;;;;;;5093970;28;20060;-31
2024/03/08 04:27:36;;;;;;;18.27;6.10;;;;;;;;;;5094136;28;20039;-33
2024/03/08 04:30:04;;;;;;;10.40;5.47;;;;;;;;;;5094356;28;20677;-33
2024/03/08 04:32:32;;;;;;;12.73;5.43;;;;;;;;;;5094364;28;20058;-31
2024/03/08 04:35:01;;;;;;;13.20;6.53;;;;;;;;;;5094398;28;20189;-31
2024/03/08 04:37:29;;;;;;;11.73;5.07;;;;;;;;;;5094395;28;20059;-31
2024/03/08 04:39:56;;;;;;;12.43;6.15;;;;;;;;;;5094145;28;20386;-31
2024/03/08 04:42:23;;;;;;;9.88;5.97;;;;;;;;;;5094308;28;20439;-30
2024/03/08 04:44:50;;;;;;;10.93;5.80;;;;;;;;;;5094160;28;20772;-31
2024/03/08 04:47:17;;;;;;;17.42;6.43;;;;;;;;;;5093905;28;20035;-30
2024/03/08 04:49:44;;;;;;;13.07;5.97;;;;;;;;;;5094100;28;20024;-30
2024/03/08 04:52:12;;;;;;;13.43;5.88;;;;;;;;;;5094081;28;20035;-31
2024/03/08 04:54:39;;;;;;;17.27;6.40;;;;;;;;;;5094000;28;20035;-29
2024/03/08 04:57:06;;;;;;;16.50;6.32;;;;;;;;;;5093975;28;20028;-29
2024/03/08 04:59:32;;;;;;;15.43;6.60;;;;;;;;;;5094019;28;20020;-30
2024/03/08 05:01:59;;;;;;;12.48;6.72;;;;;;;;;;5093866;28;20046;-32
2024/03/08 05:04:26;;;;;;;13.45;5.70;;;;;;;;;;5093934;28;20054;-34
2024/03/08 05:06:53;;;;;;;15.00;6.75;;;;;;;;;;5093934;28;20389;-31
2024/03/08 05:09:20;;;;;;;16.23;6.50;;;;;;;;;;5093649;28;20390;-33
2024/03/08 05:11:48;;;;;;;12.90;7.10;;;;;;;;;;5093734;28;20030;-31
2024/03/08 05:14:20;;;;;;;11.60;6.10;;;;;;;;;;5093693;28;20039;-33
2024/03/08 05:16:50;;;;;;;13.73;6.15;;;;;;;;;;5093044;28;20064;-29
2024/03/08 05:19:18;;;;;;;12.50;6.65;;;;;;;;;;5093614;28;20032;-30
2024/03/08 05:21:48;;;;;;;16.30;7.25;;;;;;;;;;5093495;28;20070;-29
2024/03/08 05:24:15;;;;;;;13.48;7.38;;;;;;;;;;5093458;28;20067;-29
2024/03/08 05:26:43;;;;;;;13.85;6.95;;;;;;;;;;5093374;28;20553;-31
2024/03/08 05:29:10;;;;;;;13.35;7.13;;;;;;;;;;5093256;28;20028;-32
2024/03/08 05:31:47;;;;;;;12.48;7.15;;;;;;;;;;5093452;28;20031;-32
2024/03/08 05:34:14;;;;;;;16.60;7.43;;;;;;;;;;5093274;28;20052;-30
2024/03/08 05:36:46;;;;;;;19.10;7.45;;;;;;;;;;5093293;28;20036;-31
2024/03/08 05:39:16;;;;;;;17.83;7.30;;;;;;;;;;5093279;28;20032;-30
2024/03/08 05:41:44;;;;;;;13.80;6.88;;;;;;;;;;5093137;28;20063;-30
2024/03/08 05:44:11;;;;;;;17.17;8.23;;;;;;;;;;5093043;28;20028;-30
2024/03/08 05:46:38;;;;;;;16.55;7.03;;;;;;;;;;5093104;28;20107;-30
2024/03/08 05:49:05;;;;;;;16.02;7.70;;;;;;;;;;5093039;28;20020;-29
2024/03/08 05:51:36;;;;;;;19.38;8.63;;;;;;;;;;5093059;28;20457;-30
2024/03/08 05:54:05;;;;;;;16.55;7.63;;;;;;;;;;5091753;28;20039;-31
2024/03/08 05:56:32;;;;;;;13.68;7.15;;;;;;;;;;5111156;28;20100;-32
2024/03/08 05:59:00;;;;;;;16.90;7.50;;;;;;;;;;5112339;28;20054;-30
2024/03/08 06:01:27;;;;;;;17.63;7.20;;;;;;;;;;5110981;28;20443;-30
2024/03/08 06:03:57;;;;;;;17.65;7.32;;;;;;;;;;5112919;28;20054;-29
2024/03/08 06:06:25;;;;;;;16.70;8.18;;;;;;;;;;5112914;28;20032;-32
2024/03/08 06:08:52;;;;;;;15.18;7.70;;;;;;;;;;5112871;28;20020;-31
2024/03/08 06:11:23;;;;;;;15.77;7.55;;;;;;;;;;5104933;28;20078;-33
2024/03/08 06:13:50;;;;;;;16.95;8.07;;;;;;;;;;5092524;28;20036;-33
2024/03/08 06:16:17;;;;;;;25.08;8.10;;;;;;;;;;5107490;28;20038;-31
2024/03/08 06:18:44;;;;;;;21.05;8.65;;;;;;;;;;5112668;28;20058;-30
2024/03/08 06:21:15;;;;;;;16.65;7.75;;;;;;;;;;5112778;28;20023;-31
2024/03/08 06:23:42;;;;;;;13.63;7.03;;;;;;;;;;5112555;28;20034;-32
2024/03/08 06:26:09;;;;;;;17.55;7.70;;;;;;;;;;5112441;28;20047;-31
2024/03/08 06:28:36;;;;;;;19.58;7.85;;;;;;;;;;5112595;28;20100;-34
2024/03/08 06:31:04;;;;;;;19.02;8.23;;;;;;;;;;5112578;28;20047;-33
2024/03/08 06:33:32;;;;;;;18.10;8.35;;;;;;;;;;5112617;28;20106;-31
2024/03/08 06:35:59;;;;;;;13.05;7.65;;;;;;;;;;5112471;28;20100;-31
2024/03/08 06:38:26;;;;;;;13.43;7.65;;;;;;;;;;5094300;28;20039;-31
2024/03/08 06:40:54;;;;;;;17.83;8.40;;;;;;;;;;5092062;28;20027;-33
2024/03/08 06:43:21;;;;;;;13.82;8.35;;;;;;;;;;5092081;28;20036;-33
2024/03/08 06:45:48;;;;;;;15.02;8.55;;;;;;;;;;5091914;28;20043;-30
2024/03/08 06:48:16;;;;;;;18.42;8.93;;;;;;;;;;5091831;28;20027;-31
2024/03/08 06:50:44;;;;;;;17.63;8.30;;;;;;;;;;5092032;28;20070;-31
2024/03/08 06:53:12;;;;;;;17.35;8.43;;;;;;;;;;5091671;28;20024;-31
2024/03/08 06:55:39;;;;;;;15.25;8.35;;;;;;;;;;5091886;28;20085;-35
2024/03/08 06:58:06;;;;;;;20.30;8.85;;;;;;;;;;5091741;28;20059;-37
2024/03/08 07:00:34;;;;;;;18.00;8.50;;;;;;;;;;5091811;28;20073;-31
2024/03/08 07:03:01;;;;;;;16.35;8.30;;;;;;;;;;5091766;28;20103;-30
2024/03/08 07:05:28;;;;;;;16.60;8.80;;;;;;;;;;5091672;28;20486;-30
2024/03/08 07:07:55;;;;;;;16.20;7.95;;;;;;;;;;5091675;28;20028;-29
2024/03/08 07:10:25;;;;;;;16.00;8.18;;;;;;;;;;5091692;28;20031;-30
2024/03/08 07:12:56;;;;;;;17.30;8.45;;;;;;;;;;5091714;28;20028;-30
2024/03/08 07:15:23;;;;;;;14.85;8.40;;;;;;;;;;5091687;28;20060;-31
2024/03/08 07:17:52;;;;;;;17.83;8.75;;;;;;;;;;5091613;28;20082;-30
2024/03/08 07:20:19;;;;;;;16.55;9.10;;;;;;;;;;5091765;28;20359;-29
2024/03/08 07:22:52;;;;;;;18.85;8.90;;;;;;;;;;5106143;28;20404;-32
2024/03/08 07:25:20;;;;;;;15.73;9.13;;;;;;;;;;5111622;28;20169;-30
2024/03/08 07:27:54;;;;;;;15.35;8.50;;;;;;;;;;5111685;28;20058;-30
2024/03/08 07:33:13;;;;;;;18.05;9.00;;;;;;;;;;5112131;28;20561;-32
2024/03/08 07:35:40;;;;;;;16.92;9.00;;;;;;;;;;5111716;28;20482;-33
2024/03/08 07:38:11;;;;;;;18.75;9.95;;;;;;;;;;5111736;28;20027;-32
2024/03/08 07:40:46;;;;;;;15.10;8.32;;;;;;;;;;5111595;28;20500;-32
2024/03/08 07:43:13;;;;;;;24.17;9.30;;;;;;;;;;5111750;28;20110;-33
2024/03/08 07:45:40;;;;;;;14.50;9.05;;;;;;;;;;5111698;28;20056;-35
2024/03/08 07:48:10;;;;;;;13.38;8.48;;;;;;;;;;5111586;28;20381;-35
2024/03/08 07:50:41;;;;;;;13.52;8.73;;;;;;;;;;5111748;28;20024;-31
2024/03/08 07:53:10;;;;;;;15.13;8.75;;;;;;;;;;5111659;28;20096;-34
2024/03/08 07:55:39;;;;;;;16.55;8.88;;;;;;;;;;5111570;28;20020;-32
2024/03/08 07:58:06;;;;;;;13.60;8.30;;;;;;;;;;5111608;28;20073;-33
2024/03/08 08:00:33;;;;;;;13.90;8.55;;;;;;;;;;5111551;28;20024;-31
2024/03/08 08:03:01;;;;;;;16.60;8.23;;;;;;;;;;5111373;28;20028;-34
2024/03/08 08:05:28;;;;;;;17.30;8.40;;;;;;;;;;5111295;28;20044;-31
2024/03/08 08:07:55;;;;;;;16.27;8.55;;;;;;;;;;5111521;28;20027;-31
2024/03/08 08:10:24;;;;;;;14.55;8.88;;;;;;;;;;5111449;28;20032;-31
2024/03/08 08:12:51;;;;;;;13.85;8.40;;;;;;;;;;5111286;28;20066;-35
2024/03/08 08:15:18;;;;;;;15.63;9.27;;;;;;;;;;5111429;28;20074;-32
2024/03/08 08:17:46;;;;;;;20.95;9.13;;;;;;;;;;5111334;28;20059;-32
2024/03/08 08:20:13;;;;;;;14.88;8.40;;;;;;;;;;5111453;28;20499;-34
2024/03/08 08:22:40;;;;;;;14.43;8.63;;;;;;;;;;5112914;28;20035;-31
2024/03/08 08:25:08;;;;;;;12.73;8.45;;;;;;;;;;5114602;28;21801;-33
2024/03/08 08:27:39;;;;;;;13.35;8.50;;;;;;;;;;5097975;28;20110;-34
2024/03/08 08:30:08;;;;;;;16.50;9.17;;;;;;;;;;5094371;28;20516;-32
2024/03/08 08:32:42;;;;;;;14.00;8.15;;;;;;;;;;5094571;28;20032;-35
2024/03/08 08:35:12;;;;;;;14.25;8.30;;;;;;;;;;5094263;28;20389;-32
2024/03/08 08:37:40;;;;;;;14.68;8.77;;;;;;;;;;5094269;28;20071;-33
2024/03/08 08:40:14;;;;;;;11.27;8.27;;;;;;;;;;5094268;28;20032;-32
2024/03/08 08:42:41;;;;;;;19.38;9.07;;;;;;;;;;5094389;28;20491;-32
2024/03/08 08:45:09;;;;;;;14.68;7.95;;;;;;;;;;5094183;28;20071;-31
2024/03/08 08:47:37;;;;;;;15.85;8.43;;;;;;;;;;5094334;28;20508;-32
2024/03/08 08:50:05;;;;;;;15.38;7.75;;;;;;;;;;5094237;28;20131;-31
2024/03/08 08:52:32;;;;;;;15.30;8.57;;;;;;;;;;5094279;28;20024;-33
2024/03/08 08:55:00;;;;;;;16.92;8.48;;;;;;;;;;5094115;28;20032;-32
2024/03/08 08:57:28;;;;;;;15.70;8.57;;;;;;;;;;5094164;28;20032;-34
2024/03/08 08:59:55;;;;;;;14.90;8.65;;;;;;;;;;5093892;28;20036;-32
2024/03/08 09:02:22;;;;;;;17.65;8.52;;;;;;;;;;5106513;28;20106;-30
2024/03/08 09:04:50;;;;;;;16.15;8.40;;;;;;;;;;5113403;28;20073;-30
2024/03/08 09:07:18;;;;;;;17.58;8.57;;;;;;;;;;5113444;28;20027;-32
2024/03/08 09:09:45;;;;;;;15.35;8.27;;;;;;;;;;5113372;28;20028;-31
2024/03/08 09:12:13;;;;;;;17.38;8.43;;;;;;;;;;5113632;28;20067;-31
2024/03/08 09:14:43;;;;;;;15.77;8.30;;;;;;;;;;5113700;28;20019;-33
2024/03/08 09:17:10;;;;;;;17.33;9.15;;;;;;;;;;5113737;28;20031;-32
2024/03/08 09:19:37;;;;;;;15.60;8.57;;;;;;;;;;5113914;28;20028;-32
2024/03/08 09:22:05;;;;;;;14.82;9.07;;;;;;;;;;5113876;28;20057;-34
2024/03/08 09:24:32;;;;;;;20.00;8.77;;;;;;;;;;5112676;28;20058;-32
2024/03/08 09:26:59;;;;;;;15.95;8.65;;;;;;;;;;5112259;28;20044;-35
2024/03/08 09:29:26;;;;;;;17.30;8.80;;;;;;;;;;5112586;28;20136;-34
2024/03/08 09:31:53;;;;;;;15.75;8.20;;;;;;;;;;5112540;28;20452;-35
2024/03/08 09:34:20;;;;;;;25.17;8.45;;;;;;;;;;5111331;28;20028;-33
2024/03/08 09:36:47;;;;;;;20.40;8.65;;;;;;;;;;5112476;28;20077;-32
2024/03/08 09:39:17;;;;;;;15.15;8.73;;;;;;;;;;5111762;28;20027;-34
2024/03/08 09:41:47;;;;;;;18.13;9.05;;;;;;;;;;5109982;28;20028;-33
2024/03/08 09:44:15;;;;;;;17.30;8.82;;;;;;;;;;5111460;28;20036;-32
2024/03/08 09:46:42;;;;;;;16.92;8.65;;;;;;;;;;5113252;28;20493;-32
2024/03/08 09:49:11;;;;;;;17.13;9.32;;;;;;;;;;5094902;28;20409;-33
2024/03/08 09:51:42;;;;;;;17.15;8.90;;;;;;;;;;5113188;28;20101;-33
2024/03/08 09:54:09;;;;;;;19.57;9.07;;;;;;;;;;5113125;28;20447;-33
2024/03/08 09:56:38;;;;;;;22.23;8.73;;;;;;;;;;5113220;28;20480;-32
2024/03/08 10:01:47;;;;;;;16.88;8.80;;;;;;;;;;5113497;28;20070;-32
2024/03/08 10:04:14;;;;;;;20.95;9.63;;;;;;;;;;5094189;28;20615;-34
2024/03/08 10:06:41;;;;;;;19.30;9.20;;;;;;;;;;5105728;28;20066;-34
2024/03/08 10:09:10;;;;;;;21.10;9.93;;;;;;;;;;5111029;28;20038;-33
2024/03/08 10:11:37;;;;;;;30.02;9.82;;;;;;;;;;5111382;28;20055;-33
2024/03/08 10:14:06;;;;;;;19.40;10.43;;;;;;;;;;5112058;28;20547;-33
2024/03/08 10:16:33;;;;;;;20.58;9.75;;;;;;;;;;5106323;28;20446;-36
2024/03/08 10:19:00;;;;;;;23.05;9.77;;;;;;;;;;5110595;28;20478;-30
2024/03/08 10:21:28;;;;;;;16.02;9.73;;;;;;;;;;5111044;28;20110;-31
2024/03/08 10:23:58;;;;;;;25.20;9.52;;;;;;;;;;5112223;28;20038;-35
2024/03/08 10:26:25;;;;;;;25.27;10.30;;;;;;;;;;5111421;28;20846;-32
2024/03/08 10:28:52;;;;;;;23.58;10.82;;;;;;;;;;5110001;28;20067;-31
2024/03/08 10:31:20;;;;;;;21.95;10.75;;;;;;;;;;5101798;28;20020;-31
2024/03/08 10:33:47;;;;;;;23.67;10.50;;;;;;;;;;5104162;28;20032;-32
2024/03/08 10:36:15;;;;;;;20.92;9.88;;;;;;;;;;5106369;28;20020;-31
2024/03/08 10:38:46;;;;;;;21.75;10.35;;;;;;;;;;5106201;28;20023;-29
2024/03/08 10:41:14;;;;;;;19.42;9.52;;;;;;;;;;5110639;28;20051;-30
2024/03/08 10:43:59;;;;;;;18.98;9.23;;;;;;;;;;5112403;28;20031;-33
2024/03/08 10:46:41;;;;;;;22.60;10.35;;;;;;;;;;5111553;28;20058;-31
2024/03/08 10:49:11;;;;;;;18.17;9.32;;;;;;;;;;5112112;28;20113;-32
2024/03/08 10:51:41;;;;;;;17.17;9.57;;;;;;;;;;5110522;28;20067;-32
2024/03/08 10:54:11;;;;;;;21.77;9.52;;;;;;;;;;5111706;28;20089;-35
2024/03/08 10:56:39;;;;;;;14.55;9.82;;;;;;;;;;5112235;28;20023;-31
2024/03/08 10:59:09;;;;;;;18.80;10.43;;;;;;;;;;5111388;28;20497;-33
2024/03/08 11:01:36;;;;;;;20.08;10.10;;;;;;;;;;5110465;28;20031;-33
2024/03/08 11:04:05;;;;;;;15.38;9.45;;;;;;;;;;5111242;28;20037;-31
2024/03/08 11:06:32;;;;;;;18.25;9.82;;;;;;;;;;5102550;28;20071;-30
2024/03/08 11:09:00;;;;;;;16.42;9.57;;;;;;;;;;5093947;28;20126;-32
2024/03/08 11:11:31;;;;;;;20.35;9.43;;;;;;;;;;5110397;28;20031;-33
2024/03/08 11:13:58;;;;;;;21.98;10.63;;;;;;;;;;5105109;28;20034;-32
2024/03/08 11:16:28;;;;;;;19.65;10.38;;;;;;;;;;5111738;28;20038;-33
2024/03/08 11:18:56;;;;;;;25.05;10.35;;;;;;;;;;5111054;28;20031;-31
2024/03/08 11:21:26;;;;;;;20.95;10.25;;;;;;;;;;5111923;28;20031;-31
2024/03/08 11:24:13;;;;;;;20.65;9.65;;;;;;;;;;5111749;28;20035;-31
2024/03/08 11:26:40;;;;;;;21.38;9.35;;;;;;;;;;5111215;28;20044;-32
2024/03/08 11:29:26;;;;;;;18.00;9.77;;;;;;;;;;5110443;28;20053;-31
2024/03/08 11:31:53;;;;;;;21.63;10.38;;;;;;;;;;5110806;28;20501;-33
2024/03/08 11:34:20;;;;;;;20.40;9.75;;;;;;;;;;5111762;28;20026;-30
2024/03/08 11:36:49;;;;;;;17.02;9.50;;;;;;;;;;5111543;28;20032;-30
2024/03/08 11:39:18;;;;;;;20.83;9.77;;;;;;;;;;5111760;28;20035;-31
2024/03/08 11:41:46;;;;;;;18.60;9.45;;;;;;;;;;5111466;28;20020;-32
2024/03/08 11:44:16;;;;;;;22.63;9.00;;;;;;;;;;5111741;28;20097;-31
2024/03/08 11:46:46;;;;;;;18.13;9.10;;;;;;;;;;5111549;28;20032;-32
2024/03/08 11:49:13;;;;;;;21.00;8.75;;;;;;;;;;5110931;28;20039;-31
2024/03/08 11:51:41;;;;;;;16.40;8.90;;;;;;;;;;5111603;28;20047;-30
2024/03/08 11:54:15;;;;;;;19.90;8.65;;;;;;;;;;5111778;28;20800;-31
2024/03/08 11:56:42;;;;;;;18.58;8.45;;;;;;;;;;5116293;28;20024;-32
2024/03/08 11:59:12;;;;;;;17.73;8.55;;;;;;;;;;5114531;28;20030;-31
2024/03/08 12:01:40;;;;;;;18.40;7.20;;;;;;;;;;5104998;28;20426;-32
2024/03/08 12:04:07;;;;;;;19.58;7.70;;;;;;;;;;5106728;28;20067;-32
2024/03/08 12:06:41;;;;;;;14.68;8.20;;;;;;;;;;5111310;28;20482;-33
2024/03/08 12:09:11;;;;;;;20.77;7.68;;;;;;;;;;5114366;28;20051;-31
2024/03/08 12:11:38;;;;;;;22.73;7.10;;;;;;;;;;5114048;28;20039;-33
2024/03/08 12:14:06;;;;;;;16.15;6.95;;;;;;;;;;5115055;28;20036;-30
2024/03/08 12:16:33;;;;;;;16.20;6.40;;;;;;;;;;5097258;28;20036;-33
2024/03/08 12:19:00;;;;;;;16.08;6.85;;;;;;;;;;5093133;28;20047;-31
2024/03/08 12:21:29;;;;;;;12.38;6.80;;;;;;;;;;5094332;28;20134;-31
2024/03/08 12:24:05;;;;;;;14.63;6.50;;;;;;;;;;5094197;28;20638;-31
2024/03/08 12:26:33;;;;;;;13.07;6.85;;;;;;;;;;5111018;28;20036;-31
2024/03/08 12:29:22;;;;;;;15.35;6.57;;;;;;;;;;5112856;28;20070;-31
2024/03/08 12:31:53;;;;;;;19.15;7.28;;;;;;;;;;5095091;28;20047;-34
2024/03/08 12:34:20;;;;;;;10.75;7.07;;;;;;;;;;5105288;28;20086;-31
2024/03/08 12:36:53;;;;;;;12.27;7.18;;;;;;;;;;5111527;28;20024;-30
2024/03/08 12:39:27;;;;;;;13.25;6.35;;;;;;;;;;5109736;28;20036;-30
2024/03/08 12:41:56;;;;;;;16.73;7.28;;;;;;;;;;5107636;28;20512;-30
2024/03/08 12:44:24;;;;;;;15.40;7.30;;;;;;;;;;5112879;28;20024;-30
2024/03/08 12:46:53;;;;;;;14.70;7.22;;;;;;;;;;5107058;28;20080;-32
2024/03/08 12:49:22;;;;;;;15.05;7.55;;;;;;;;;;5099382;28;20060;-31
2024/03/08 12:51:49;;;;;;;18.60;8.20;;;;;;;;;;5096550;28;20036;-30
2024/03/08 12:54:16;;;;;;;15.65;7.15;;;;;;;;;;5106043;28;20036;-30
2024/03/08 12:56:43;;;;;;;15.90;7.53;;;;;;;;;;5105579;28;20054;-32
2024/03/08 12:59:11;;;;;;;16.95;7.20;;;;;;;;;;5106984;28;20027;-33
2024/03/08 13:01:39;;;;;;;17.67;7.07;;;;;;;;;;5111820;28;20027;-33
2024/03/08 13:04:06;;;;;;;17.42;6.53;;;;;;;;;;5112787;28;20055;-31
2024/03/08 13:06:34;;;;;;;14.82;6.88;;;;;;;;;;5113345;28;20024;-31
2024/03/08 13:09:05;;;;;;;19.55;6.97;;;;;;;;;;5102124;28;20027;-32
2024/03/08 13:11:36;;;;;;;11.73;6.95;;;;;;;;;;5110954;28;20492;-33
2024/03/08 13:14:05;;;;;;;17.27;7.55;;;;;;;;;;5097615;28;20066;-33
2024/03/08 13:16:34;;;;;;;12.90;6.40;;;;;;;;;;5110854;28;20116;-31
2024/03/08 13:19:01;;;;;;;19.40;6.80;;;;;;;;;;5093061;28;20058;-30
2024/03/08 13:21:30;;;;;;;12.52;6.03;;;;;;;;;;5104643;28;20381;-33
2024/03/08 13:23:59;;;;;;;11.85;6.00;;;;;;;;;;5097910;28;20032;-35
2024/03/08 13:26:32;;;;;;;12.88;5.85;;;;;;;;;;5098668;28;20139;-33
2024/03/08 13:28:59;;;;;;;20.88;6.40;;;;;;;;;;5093920;28;20118;-31
2024/03/08 13:31:26;;;;;;;11.48;5.47;;;;;;;;;;5107746;28;20552;-32
2024/03/08 13:33:57;;;;;;;11.95;5.78;;;;;;;;;;5093641;28;20378;-32
2024/03/08 13:36:29;;;;;;;16.15;6.28;;;;;;;;;;5100810;28;20039;-32
2024/03/08 13:38:58;;;;;;;14.52;5.65;;;;;;;;;;5105803;28;20371;-33
2024/03/08 13:41:26;;;;;;;16.40;6.35;;;;;;;;;;5106948;28;20461;-33
2024/03/08 13:43:53;;;;;;;13.55;5.57;;;;;;;;;;5105700;28;20497;-31
2024/03/08 13:46:20;;;;;;;13.98;5.90;;;;;;;;;;5102331;28;20042;-32
2024/03/08 13:48:47;;;;;;;12.82;5.50;;;;;;;;;;5105621;28;20053;-31
2024/03/08 13:51:17;;;;;;;20.88;6.18;;;;;;;;;;5104875;28;20397;-33
2024/03/08 13:53:44;;;;;;;17.60;6.10;;;;;;;;;;5111463;28;20081;-35
2024/03/08 13:56:11;;;;;;;20.10;6.07;;;;;;;;;;5110725;28;20030;-33
2024/03/08 13:58:40;;;;;;;14.93;5.32;;;;;;;;;;5112335;28;20024;-34
2024/03/08 14:01:11;;;;;;;14.77;5.68;;;;;;;;;;5112441;28;20515;-34
2024/03/08 14:03:41;;;;;;;14.20;5.60;;;;;;;;;;5111922;28;20100;-34
2024/03/08 14:06:09;;;;;;;11.10;5.65;;;;;;;;;;5112309;28;20063;-31
2024/03/08 14:08:40;;;;;;;9.50;4.90;;;;;;;;;;5112342;28;20031;-33
2024/03/08 14:11:12;;;;;;;12.35;5.80;;;;;;;;;;5106113;28;20528;-32
2024/03/08 14:13:46;;;;;;;16.15;6.25;;;;;;;;;;5073875;28;20474;-35
2024/03/08 14:16:13;;;;;;;21.30;5.32;;;;;;;;;;5099449;28;20035;-31
2024/03/08 14:18:40;;;;;;;21.48;5.70;;;;;;;;;;5112206;28;20537;-33
2024/03/08 14:21:08;;;;;;;19.98;5.93;;;;;;;;;;5109212;28;20032;-32
2024/03/08 14:23:36;;;;;;;22.00;6.15;;;;;;;;;;5099490;28;20461;-34
2024/03/08 14:26:04;;;;;;;16.85;5.75;;;;;;;;;;5099564;28;20388;-35
2024/03/08 14:28:32;;;;;;;14.50;5.82;;;;;;;;;;5095198;28;20055;-33
2024/03/08 14:31:02;;;;;;;17.17;6.78;;;;;;;;;;5100327;28;20028;-33
2024/03/08 14:33:29;;;;;;;17.55;6.07;;;;;;;;;;5092893;28;20149;-32
2024/03/08 14:35:56;;;;;;;12.85;5.85;;;;;;;;;;5105216;28;20055;-33
2024/03/08 14:38:27;;;;;;;13.38;5.60;;;;;;;;;;5098196;28;20386;-34
2024/03/08 14:40:55;;;;;;;14.68;5.70;;;;;;;;;;5107852;28;20123;-31
2024/03/08 14:43:22;;;;;;;20.27;6.63;;;;;;;;;;5108928;28;20040;-33